Cypress, Illinois
Current Conditions -  °F | °C
As of 8:35 AM on Tuesday 27 Jan 2015 (Local Time) from KM30 Reporting Station
Haze Haze  
Wind Chill: 32°   Ceiling: 1300
Heat Index: 36°   Visibility: 5mi
Dew Point: 36°   Wind: 5mph
Humidity: 100%   Direction: 310°NW
Pressure: 30.08"   Gusts: NA
Location:  37.37°N, 89.02°W
Report Text: KM30 271435Z AUTO 31004KT 5SM BR BKN013 02/02 A3008 RMK AO2 T00210021
Loading
Personal Weather Stations






























Interactive Weather Map New forecast layout! Learn more

10-Day Weather Forecast

Advertisements
Track Severe Weather on mobile